Time;durP1;ratioP1;P1;durP2;ratioP2;P2;SDS_P1;SDS_P2;PMS_P1;PMS_P2;Temp;Humidity;BMP_temperature;BMP_pressure;BME280_temperature;BME280_humidity;BME280_pressure;Samples;Min_cycle;Max_cycle;Signal;HPM_P1;HPM_P2
2023/06/10 00:01:57;;;;;;;9.50;8.60;;;;;;;;;;5074610;28;20443;-61
2023/06/10 00:04:26;;;;;;;8.53;7.67;;;;;;;;;;5074994;28;20464;-61
2023/06/10 00:06:53;;;;;;;7.93;7.00;;;;;;;;;;5074837;28;20479;-61
2023/06/10 00:09:21;;;;;;;8.93;7.97;;;;;;;;;;5075168;28;20447;-61
2023/06/10 00:11:48;;;;;;;8.60;7.30;;;;;;;;;;5074683;28;20445;-61
2023/06/10 00:14:15;;;;;;;9.63;7.53;;;;;;;;;;5074369;28;20929;-61
2023/06/10 00:16:44;;;;;;;10.73;7.83;;;;;;;;;;5074228;28;20441;-61
2023/06/10 00:19:13;;;;;;;9.27;8.37;;;;;;;;;;5074851;28;20478;-61
2023/06/10 00:21:44;;;;;;;9.00;7.90;;;;;;;;;;5074171;28;20436;-61
2023/06/10 00:24:12;;;;;;;15.33;8.00;;;;;;;;;;5074781;28;20868;-61
2023/06/10 00:26:40;;;;;;;9.20;7.90;;;;;;;;;;5074506;28;20444;-61
2023/06/10 00:29:07;;;;;;;10.33;8.17;;;;;;;;;;5074372;28;20452;-61
2023/06/10 00:31:35;;;;;;;10.27;8.70;;;;;;;;;;5074118;28;20483;-61
2023/06/10 00:34:03;;;;;;;10.07;7.07;;;;;;;;;;5073999;28;20481;-61
2023/06/10 00:36:30;;;;;;;9.03;8.13;;;;;;;;;;5074195;28;20494;-61
2023/06/10 00:38:58;;;;;;;8.80;7.40;;;;;;;;;;5074256;28;20519;-61
2023/06/10 00:41:27;;;;;;;9.67;7.83;;;;;;;;;;5074221;28;20445;-61
2023/06/10 00:43:54;;;;;;;10.13;8.23;;;;;;;;;;5074032;28;20492;-61
2023/06/10 00:46:21;;;;;;;8.33;7.30;;;;;;;;;;5073698;28;20447;-61
2023/06/10 00:48:49;;;;;;;10.10;7.23;;;;;;;;;;5074232;28;20438;-61
2023/06/10 00:51:17;;;;;;;11.03;8.10;;;;;;;;;;5073998;28;20440;-61
2023/06/10 00:53:45;;;;;;;8.10;7.00;;;;;;;;;;5072894;28;20517;-61
2023/06/10 00:56:15;;;;;;;11.73;7.30;;;;;;;;;;5073568;28;20519;-61
2023/06/10 00:58:42;;;;;;;10.67;7.87;;;;;;;;;;5073882;28;20437;-61
2023/06/10 01:01:10;;;;;;;9.03;7.90;;;;;;;;;;5073846;28;20458;-61
2023/06/10 01:03:38;;;;;;;10.80;8.10;;;;;;;;;;5073387;28;20885;-61
2023/06/10 01:06:10;;;;;;;9.40;7.77;;;;;;;;;;5073776;28;20442;-61
2023/06/10 01:08:42;;;;;;;11.83;7.27;;;;;;;;;;5073897;28;20515;-61
2023/06/10 01:11:15;;;;;;;12.10;7.70;;;;;;;;;;5073347;28;20428;-61
2023/06/10 01:13:46;;;;;;;12.00;7.10;;;;;;;;;;5073729;28;20431;-61
2023/06/10 01:16:13;;;;;;;11.13;7.80;;;;;;;;;;5073999;28;20432;-62
2023/06/10 01:18:43;;;;;;;9.23;7.07;;;;;;;;;;5073297;28;20924;-61
2023/06/10 01:21:11;;;;;;;13.87;7.50;;;;;;;;;;5073169;28;20941;-61
2023/06/10 01:23:43;;;;;;;8.13;7.20;;;;;;;;;;5073108;28;20521;-61
2023/06/10 01:26:11;;;;;;;8.23;7.33;;;;;;;;;;5073965;28;20533;-62
2023/06/10 01:28:41;;;;;;;8.60;7.10;;;;;;;;;;5073171;28;20450;-61
2023/06/10 01:31:11;;;;;;;17.97;9.07;;;;;;;;;;5073349;28;20484;-61
2023/06/10 01:33:40;;;;;;;10.03;8.10;;;;;;;;;;5073070;28;20540;-61
2023/06/10 01:36:08;;;;;;;10.20;7.50;;;;;;;;;;5073196;28;20443;-61
2023/06/10 01:38:38;;;;;;;10.03;7.93;;;;;;;;;;5073429;28;20878;-61
2023/06/10 01:41:07;;;;;;;11.27;8.27;;;;;;;;;;5074042;28;20440;-61
2023/06/10 01:43:35;;;;;;;11.53;7.20;;;;;;;;;;5073257;28;20487;-60
2023/06/10 01:46:02;;;;;;;9.90;6.83;;;;;;;;;;5073644;28;20439;-61
2023/06/10 01:48:29;;;;;;;8.57;7.63;;;;;;;;;;5073008;28;20462;-61
2023/06/10 01:50:57;;;;;;;8.77;7.90;;;;;;;;;;5072863;28;20448;-62
2023/06/10 01:53:24;;;;;;;12.33;7.87;;;;;;;;;;5072927;28;20454;-61
2023/06/10 01:55:51;;;;;;;10.80;8.13;;;;;;;;;;5073311;28;20480;-61
2023/06/10 01:58:20;;;;;;;9.73;7.30;;;;;;;;;;5072800;28;20439;-61
2023/06/10 02:00:47;;;;;;;10.47;7.00;;;;;;;;;;5072780;28;20451;-61
2023/06/10 02:03:14;;;;;;;9.80;7.83;;;;;;;;;;5072671;28;21087;-61
2023/06/10 02:05:41;;;;;;;8.90;8.00;;;;;;;;;;5076430;28;20505;-61
2023/06/10 02:08:09;;;;;;;15.33;7.07;;;;;;;;;;5077124;28;20794;-61
2023/06/10 02:10:36;;;;;;;14.40;7.30;;;;;;;;;;5076820;28;20924;-61
2023/06/10 02:13:03;;;;;;;9.53;7.30;;;;;;;;;;5076976;28;20441;-61
2023/06/10 02:15:32;;;;;;;8.90;8.00;;;;;;;;;;5076962;28;20446;-61
2023/06/10 02:17:59;;;;;;;7.90;7.13;;;;;;;;;;5076905;28;20446;-61
2023/06/10 02:20:26;;;;;;;11.77;7.70;;;;;;;;;;5076563;28;20936;-61
2023/06/10 02:22:53;;;;;;;9.47;8.50;;;;;;;;;;5076768;28;20465;-61
2023/06/10 02:25:20;;;;;;;10.90;7.37;;;;;;;;;;5076416;28;20485;-61
2023/06/10 02:27:48;;;;;;;10.47;7.20;;;;;;;;;;5076704;28;20446;-61
2023/06/10 02:30:15;;;;;;;11.43;8.10;;;;;;;;;;5076466;28;20474;-61
2023/06/10 02:32:47;;;;;;;9.70;7.00;;;;;;;;;;5076489;28;20529;-61
2023/06/10 02:35:14;;;;;;;9.83;8.43;;;;;;;;;;5076628;28;20438;-61
2023/06/10 02:37:41;;;;;;;11.23;7.87;;;;;;;;;;5076725;28;20454;-61
2023/06/10 02:40:10;;;;;;;15.50;7.70;;;;;;;;;;5076591;28;20454;-61
2023/06/10 02:42:37;;;;;;;11.27;8.00;;;;;;;;;;5076123;28;20446;-61
2023/06/10 02:45:04;;;;;;;9.83;8.07;;;;;;;;;;5076361;28;20480;-61
2023/06/10 02:47:31;;;;;;;8.83;7.60;;;;;;;;;;5076227;28;20504;-61
2023/06/10 02:50:00;;;;;;;9.27;7.40;;;;;;;;;;5076315;28;20438;-61
2023/06/10 02:52:27;;;;;;;11.13;7.30;;;;;;;;;;5076233;28;20434;-61
2023/06/10 02:54:55;;;;;;;11.50;7.77;;;;;;;;;;5075987;28;20482;-61
2023/06/10 02:57:22;;;;;;;9.97;7.67;;;;;;;;;;5075826;28;20538;-61
2023/06/10 02:59:49;;;;;;;10.73;7.90;;;;;;;;;;5075820;28;20446;-61
2023/06/10 03:02:16;;;;;;;11.03;7.60;;;;;;;;;;5076167;28;20545;-61
2023/06/10 03:04:45;;;;;;;9.10;8.07;;;;;;;;;;5076027;28;20477;-61
2023/06/10 03:07:13;;;;;;;10.03;7.90;;;;;;;;;;5075671;28;20452;-62
2023/06/10 03:09:41;;;;;;;15.47;9.10;;;;;;;;;;5075999;28;20509;-61
2023/06/10 03:12:08;;;;;;;10.23;7.80;;;;;;;;;;5075818;28;20474;-61
2023/06/10 03:14:36;;;;;;;10.27;7.73;;;;;;;;;;5075605;28;20458;-61
2023/06/10 03:17:04;;;;;;;10.70;8.43;;;;;;;;;;5074900;28;20442;-61
2023/06/10 03:19:33;;;;;;;11.63;8.57;;;;;;;;;;5075689;28;20445;-60
2023/06/10 03:22:08;;;;;;;9.37;8.30;;;;;;;;;;5076062;28;20451;-60
2023/06/10 03:24:39;;;;;;;11.40;8.53;;;;;;;;;;5075839;28;20464;-61
2023/06/10 03:27:07;;;;;;;8.50;7.30;;;;;;;;;;5075780;28;20425;-61
2023/06/10 03:29:34;;;;;;;11.50;8.27;;;;;;;;;;5075569;28;20520;-61
2023/06/10 03:32:02;;;;;;;10.00;7.70;;;;;;;;;;5075099;28;20481;-61
2023/06/10 03:34:29;;;;;;;11.50;7.43;;;;;;;;;;5075526;28;20805;-60
2023/06/10 03:36:56;;;;;;;8.73;7.67;;;;;;;;;;5075795;28;20482;-61
2023/06/10 03:39:24;;;;;;;8.90;7.73;;;;;;;;;;5075067;28;21001;-60
2023/06/10 03:41:52;;;;;;;10.43;7.50;;;;;;;;;;5075650;28;20455;-61
2023/06/10 03:44:19;;;;;;;8.20;7.40;;;;;;;;;;5075296;28;20482;-60
2023/06/10 03:46:47;;;;;;;18.40;8.27;;;;;;;;;;5074980;28;20530;-60
2023/06/10 03:49:15;;;;;;;8.40;7.50;;;;;;;;;;5081482;28;20457;-61
2023/06/10 03:51:42;;;;;;;7.80;6.87;;;;;;;;;;5093963;28;20464;-60
2023/06/10 03:54:10;;;;;;;8.97;7.47;;;;;;;;;;5094063;28;20454;-60
2023/06/10 03:56:37;;;;;;;8.60;7.73;;;;;;;;;;5094356;28;20624;-60
2023/06/10 03:59:06;;;;;;;10.40;7.13;;;;;;;;;;5094124;28;20438;-60
2023/06/10 04:01:33;;;;;;;10.00;7.50;;;;;;;;;;5094052;28;20452;-60
2023/06/10 04:04:01;;;;;;;8.90;7.47;;;;;;;;;;5094134;28;20509;-60
2023/06/10 04:06:28;;;;;;;8.47;7.23;;;;;;;;;;5094285;28;20455;-61
2023/06/10 04:08:56;;;;;;;6.87;6.27;;;;;;;;;;5094173;28;20442;-61
2023/06/10 04:11:24;;;;;;;8.67;7.77;;;;;;;;;;5093911;28;20441;-61
2023/06/10 04:13:51;;;;;;;12.80;7.80;;;;;;;;;;5093946;28;20442;-60
2023/06/10 04:16:20;;;;;;;11.03;7.30;;;;;;;;;;5093957;28;20438;-61
2023/06/10 04:18:48;;;;;;;8.17;6.90;;;;;;;;;;5093820;28;20438;-61
2023/06/10 04:21:15;;;;;;;11.27;7.80;;;;;;;;;;5093960;28;20431;-60
2023/06/10 04:23:42;;;;;;;10.63;7.43;;;;;;;;;;5093932;28;20457;-60
2023/06/10 04:26:11;;;;;;;7.43;6.57;;;;;;;;;;5094286;28;20792;-61
2023/06/10 04:28:38;;;;;;;12.53;7.30;;;;;;;;;;5093621;28;20437;-60
2023/06/10 04:31:05;;;;;;;9.20;7.00;;;;;;;;;;5094143;28;20478;-60
2023/06/10 04:33:34;;;;;;;10.67;7.20;;;;;;;;;;5093549;28;20444;-60
2023/06/10 04:36:01;;;;;;;8.67;7.60;;;;;;;;;;5094129;28;20452;-61
2023/06/10 04:38:28;;;;;;;7.87;7.07;;;;;;;;;;5093633;28;20452;-60
2023/06/10 04:40:55;;;;;;;9.03;7.17;;;;;;;;;;5093972;28;20445;-61
2023/06/10 04:43:22;;;;;;;7.57;6.87;;;;;;;;;;5093924;28;20441;-60
2023/06/10 04:45:49;;;;;;;11.40;6.60;;;;;;;;;;5094317;28;20867;-61
2023/06/10 04:48:17;;;;;;;7.90;6.40;;;;;;;;;;5093691;28;20815;-61
2023/06/10 04:50:45;;;;;;;8.37;6.57;;;;;;;;;;5093846;28;20440;-60
2023/06/10 04:53:12;;;;;;;9.13;7.40;;;;;;;;;;5093465;28;20431;-60
2023/06/10 04:55:40;;;;;;;9.87;7.43;;;;;;;;;;5093824;28;20800;-60
2023/06/10 04:58:07;;;;;;;12.83;7.37;;;;;;;;;;5093710;28;20530;-61
2023/06/10 05:00:34;;;;;;;10.33;7.33;;;;;;;;;;5093297;28;20448;-60
2023/06/10 05:03:01;;;;;;;11.20;6.97;;;;;;;;;;5093679;28;20952;-60
2023/06/10 05:05:29;;;;;;;7.90;7.10;;;;;;;;;;5093501;28;20989;-60
2023/06/10 05:07:57;;;;;;;10.27;6.23;;;;;;;;;;5093658;28;20447;-60
2023/06/10 05:10:25;;;;;;;7.60;6.40;;;;;;;;;;5093005;28;20457;-60
2023/06/10 05:12:52;;;;;;;9.23;6.63;;;;;;;;;;5093465;28;20446;-60
2023/06/10 05:15:19;;;;;;;9.33;6.27;;;;;;;;;;5093567;28;20457;-60
2023/06/10 05:17:46;;;;;;;8.40;6.80;;;;;;;;;;5093338;28;20525;-60
2023/06/10 05:20:15;;;;;;;7.10;6.40;;;;;;;;;;5093151;28;20445;-60
2023/06/10 05:22:42;;;;;;;7.23;6.50;;;;;;;;;;5093445;28;20542;-60
2023/06/10 05:25:11;;;;;;;9.80;7.07;;;;;;;;;;5093785;28;20485;-60
2023/06/10 05:27:39;;;;;;;10.27;6.40;;;;;;;;;;5093678;28;20451;-60
2023/06/10 05:30:07;;;;;;;9.80;6.90;;;;;;;;;;5092960;28;20499;-60
2023/06/10 05:32:34;;;;;;;11.93;6.90;;;;;;;;;;5092957;28;20437;-60
2023/06/10 05:35:03;;;;;;;9.10;7.30;;;;;;;;;;5092304;28;20539;-60
2023/06/10 05:37:30;;;;;;;9.53;6.77;;;;;;;;;;5092971;28;20473;-61
2023/06/10 05:39:57;;;;;;;11.30;7.13;;;;;;;;;;5092528;28;20441;-60
2023/06/10 05:42:26;;;;;;;8.10;6.43;;;;;;;;;;5092996;28;20449;-61
2023/06/10 05:44:53;;;;;;;10.90;6.97;;;;;;;;;;5092994;28;21010;-61
2023/06/10 05:47:20;;;;;;;6.57;5.93;;;;;;;;;;5092775;28;20456;-61
2023/06/10 05:49:49;;;;;;;7.40;6.20;;;;;;;;;;5091900;28;20436;-61
2023/06/10 05:52:16;;;;;;;6.97;6.30;;;;;;;;;;5092778;28;20527;-61
2023/06/10 05:54:44;;;;;;;6.70;6.07;;;;;;;;;;5092649;28;20451;-61
2023/06/10 05:57:11;;;;;;;9.87;6.30;;;;;;;;;;5092585;28;20457;-61
2023/06/10 05:59:39;;;;;;;7.07;6.10;;;;;;;;;;5092278;28;20556;-61
2023/06/10 06:02:07;;;;;;;7.33;5.97;;;;;;;;;;5092531;28;20442;-61
2023/06/10 06:04:34;;;;;;;7.10;5.60;;;;;;;;;;5092917;28;20509;-62
2023/06/10 06:07:01;;;;;;;5.70;5.20;;;;;;;;;;5093153;28;20442;-61
2023/06/10 06:09:28;;;;;;;6.13;5.50;;;;;;;;;;5092678;28;20452;-61
2023/06/10 06:11:55;;;;;;;11.47;5.93;;;;;;;;;;5092758;28;20450;-61
2023/06/10 06:14:23;;;;;;;8.50;6.07;;;;;;;;;;5092701;28;20450;-61
2023/06/10 06:16:51;;;;;;;9.57;5.90;;;;;;;;;;5092367;28;20453;-62
2023/06/10 06:19:18;;;;;;;7.73;6.87;;;;;;;;;;5092468;28;20439;-61
2023/06/10 06:21:46;;;;;;;7.67;5.70;;;;;;;;;;5092210;28;20955;-61
2023/06/10 06:24:13;;;;;;;9.87;6.53;;;;;;;;;;5092358;28;20958;-61
2023/06/10 06:26:40;;;;;;;9.87;6.17;;;;;;;;;;5092546;28;20986;-61
2023/06/10 06:29:07;;;;;;;9.00;5.40;;;;;;;;;;5092202;28;20435;-61
2023/06/10 06:31:34;;;;;;;8.13;5.70;;;;;;;;;;5092608;28;20480;-61
2023/06/10 06:34:03;;;;;;;5.53;5.03;;;;;;;;;;5092573;28;20437;-62
2023/06/10 06:36:30;;;;;;;8.80;4.90;;;;;;;;;;5092268;28;20935;-61
2023/06/10 06:38:58;;;;;;;10.17;5.87;;;;;;;;;;5092333;28;20447;-62
2023/06/10 06:41:25;;;;;;;5.63;5.13;;;;;;;;;;5092234;28;20462;-62
2023/06/10 06:43:52;;;;;;;10.17;5.70;;;;;;;;;;5092649;28;20431;-61
2023/06/10 06:46:21;;;;;;;6.43;5.70;;;;;;;;;;5092425;28;20471;-61
2023/06/10 06:48:48;;;;;;;6.63;5.90;;;;;;;;;;5092248;28;20522;-62
2023/06/10 06:51:16;;;;;;;7.10;5.33;;;;;;;;;;5093371;28;20439;-63
2023/06/10 06:53:45;;;;;;;6.77;4.50;;;;;;;;;;5095869;28;20435;-62
2023/06/10 06:56:12;;;;;;;7.50;4.77;;;;;;;;;;5095908;28;20462;-61
2023/06/10 06:58:40;;;;;;;8.67;4.67;;;;;;;;;;5095902;28;20431;-62
2023/06/10 07:01:07;;;;;;;7.30;4.60;;;;;;;;;;5096131;28;20454;-62
2023/06/10 07:03:34;;;;;;;6.53;4.77;;;;;;;;;;5096005;28;20454;-61
2023/06/10 07:06:01;;;;;;;5.97;4.77;;;;;;;;;;5095934;28;20483;-61
2023/06/10 07:08:30;;;;;;;8.60;4.60;;;;;;;;;;5095572;28;20948;-68
2023/06/10 07:10:57;;;;;;;12.10;5.67;;;;;;;;;;5095648;28;20435;-62
2023/06/10 07:13:24;;;;;;;6.43;4.60;;;;;;;;;;5095847;28;20448;-62
2023/06/10 07:15:51;;;;;;;6.10;4.90;;;;;;;;;;5095688;28;20435;-61
2023/06/10 07:18:18;;;;;;;6.13;4.80;;;;;;;;;;5095541;28;20462;-62
2023/06/10 07:20:46;;;;;;;8.53;5.10;;;;;;;;;;5095500;28;20451;-62
2023/06/10 07:23:13;;;;;;;11.07;4.70;;;;;;;;;;5096073;28;20798;-62
2023/06/10 07:25:42;;;;;;;11.13;5.17;;;;;;;;;;5096255;28;20471;-62
2023/06/10 07:28:09;;;;;;;14.57;4.70;;;;;;;;;;5095622;28;20938;-62
2023/06/10 07:30:36;;;;;;;5.93;4.43;;;;;;;;;;5095399;28;20475;-62
2023/06/10 07:33:05;;;;;;;6.23;3.80;;;;;;;;;;5096326;28;20431;-62
2023/06/10 07:35:32;;;;;;;8.07;4.67;;;;;;;;;;5095897;28;20785;-61
2023/06/10 07:38:00;;;;;;;5.30;4.80;;;;;;;;;;5094573;28;20439;-62
2023/06/10 07:40:27;;;;;;;8.00;4.20;;;;;;;;;;5094718;28;20466;-63
2023/06/10 07:42:56;;;;;;;6.17;4.67;;;;;;;;;;5094671;28;20428;-62
2023/06/10 07:45:24;;;;;;;6.13;4.87;;;;;;;;;;5094983;28;20478;-62
2023/06/10 07:47:51;;;;;;;5.43;4.30;;;;;;;;;;5095167;28;20515;-62
2023/06/10 07:50:18;;;;;;;9.13;4.87;;;;;;;;;;5095393;28;20440;-62
2023/06/10 07:52:45;;;;;;;9.57;5.00;;;;;;;;;;5095266;28;20445;-61
2023/06/10 07:55:12;;;;;;;5.23;4.50;;;;;;;;;;5084209;28;20452;-61
2023/06/10 07:57:39;;;;;;;6.63;5.23;;;;;;;;;;5075156;28;20440;-62
2023/06/10 08:00:09;;;;;;;9.23;5.90;;;;;;;;;;5073919;28;20444;-62
2023/06/10 08:02:37;;;;;;;10.10;5.33;;;;;;;;;;5073802;28;20441;-62
2023/06/10 08:05:04;;;;;;;7.87;5.30;;;;;;;;;;5074059;28;20432;-62
2023/06/10 08:07:32;;;;;;;5.37;4.87;;;;;;;;;;5073914;28;20444;-62
2023/06/10 08:09:59;;;;;;;7.50;5.20;;;;;;;;;;5074608;28;20437;-62
2023/06/10 08:12:26;;;;;;;6.00;4.83;;;;;;;;;;5074214;28;20980;-62
2023/06/10 08:14:54;;;;;;;6.33;4.10;;;;;;;;;;5074327;28;20453;-61
2023/06/10 08:17:23;;;;;;;6.70;5.20;;;;;;;;;;5074827;28;20784;-62
2023/06/10 08:19:50;;;;;;;7.07;4.97;;;;;;;;;;5074078;28;20455;-62
2023/06/10 08:22:17;;;;;;;7.57;4.67;;;;;;;;;;5073621;28;20442;-62
2023/06/10 08:24:44;;;;;;;6.90;4.90;;;;;;;;;;5073747;28;20526;-62
2023/06/10 08:27:12;;;;;;;5.50;4.40;;;;;;;;;;5073980;28;20479;-62
2023/06/10 08:29:39;;;;;;;8.73;5.10;;;;;;;;;;5074268;28;20439;-61
2023/06/10 08:32:06;;;;;;;5.60;5.00;;;;;;;;;;5034319;28;20451;-62
2023/06/10 08:34:36;;;;;;;8.87;4.60;;;;;;;;;;5033889;28;20950;-62
2023/06/10 08:37:03;;;;;;;6.47;4.80;;;;;;;;;;5034356;28;20522;-62
2023/06/10 08:39:31;;;;;;;6.07;4.90;;;;;;;;;;5047734;28;20459;-63
2023/06/10 08:42:02;;;;;;;6.40;5.10;;;;;;;;;;5053042;28;20934;-63
2023/06/10 08:44:30;;;;;;;5.53;5.00;;;;;;;;;;5053269;28;20464;-63
2023/06/10 08:46:58;;;;;;;5.73;5.13;;;;;;;;;;5053414;28;20489;-63
2023/06/10 08:49:27;;;;;;;9.83;5.40;;;;;;;;;;5054022;28;20446;-63
2023/06/10 08:51:59;;;;;;;5.53;4.87;;;;;;;;;;5053583;28;20440;-62
2023/06/10 08:54:28;;;;;;;4.37;4.03;;;;;;;;;;5053809;28;20781;-62
2023/06/10 08:56:56;;;;;;;10.23;5.20;;;;;;;;;;5053732;28;20532;-63
2023/06/10 08:59:25;;;;;;;6.60;4.50;;;;;;;;;;5053446;28;20439;-62
2023/06/10 09:01:53;;;;;;;5.77;5.13;;;;;;;;;;5052320;28;20452;-62
2023/06/10 09:04:20;;;;;;;7.33;4.80;;;;;;;;;;5052769;28;20440;-62
2023/06/10 09:06:48;;;;;;;6.20;4.80;;;;;;;;;;5053511;28;20505;-63
2023/06/10 09:09:17;;;;;;;8.70;4.60;;;;;;;;;;5053267;28;20856;-62
2023/06/10 09:11:45;;;;;;;5.40;4.90;;;;;;;;;;5053708;28;20441;-63
2023/06/10 09:14:12;;;;;;;5.27;4.53;;;;;;;;;;5052316;28;20546;-63
2023/06/10 09:16:40;;;;;;;4.90;4.40;;;;;;;;;;5053234;28;20448;-62
2023/06/10 09:19:08;;;;;;;9.27;5.57;;;;;;;;;;5052772;28;20448;-63
2023/06/10 09:21:36;;;;;;;9.53;4.50;;;;;;;;;;5052502;28;20924;-63
2023/06/10 09:24:03;;;;;;;10.40;5.00;;;;;;;;;;5052188;28;20488;-63
2023/06/10 09:26:32;;;;;;;8.10;5.13;;;;;;;;;;5052921;28;20503;-63
2023/06/10 09:29:04;;;;;;;5.23;4.73;;;;;;;;;;5053285;28;20451;-61
2023/06/10 09:31:31;;;;;;;8.87;5.13;;;;;;;;;;5084121;28;20500;-62
2023/06/10 09:34:07;;;;;;;7.50;5.03;;;;;;;;;;5092846;28;20447;-62
2023/06/10 09:36:34;;;;;;;6.20;5.10;;;;;;;;;;5093320;28;20528;-63
2023/06/10 09:39:01;;;;;;;7.00;5.00;;;;;;;;;;5092592;28;20954;-63
2023/06/10 09:41:35;;;;;;;5.90;5.10;;;;;;;;;;5092095;28;20455;-63
2023/06/10 09:44:03;;;;;;;8.93;5.30;;;;;;;;;;5092804;28;20445;-60
2023/06/10 09:46:33;;;;;;;5.07;4.60;;;;;;;;;;5093375;28;20486;-60
2023/06/10 09:49:00;;;;;;;7.60;5.73;;;;;;;;;;5093154;28;20829;-61
2023/06/10 09:51:27;;;;;;;7.23;5.80;;;;;;;;;;5093499;28;20441;-61
2023/06/10 09:53:55;;;;;;;6.20;5.47;;;;;;;;;;5092615;28;20493;-61
2023/06/10 09:56:23;;;;;;;6.30;5.70;;;;;;;;;;5092800;28;20519;-61
2023/06/10 09:58:54;;;;;;;8.77;5.60;;;;;;;;;;5092730;28;20540;-60
2023/06/10 10:01:21;;;;;;;6.93;5.30;;;;;;;;;;5092966;28;20463;-61
2023/06/10 10:03:50;;;;;;;6.23;5.57;;;;;;;;;;5093237;28;20439;-61
2023/06/10 10:06:18;;;;;;;7.67;6.20;;;;;;;;;;5092551;28;20471;-63
2023/06/10 10:08:45;;;;;;;8.67;5.20;;;;;;;;;;5093542;28;20494;-62
2023/06/10 10:11:13;;;;;;;7.77;4.60;;;;;;;;;;5092774;28;21029;-61
2023/06/10 10:13:41;;;;;;;6.70;5.10;;;;;;;;;;5092918;28;20454;-61
2023/06/10 10:16:11;;;;;;;6.10;5.40;;;;;;;;;;5092565;28;20444;-61
2023/06/10 10:18:40;;;;;;;6.23;5.50;;;;;;;;;;5092894;28;20494;-61
2023/06/10 10:21:12;;;;;;;8.70;5.07;;;;;;;;;;5092948;28;20437;-61
2023/06/10 10:23:42;;;;;;;8.50;5.80;;;;;;;;;;5092632;28;20400;-61
2023/06/10 10:26:11;;;;;;;6.90;4.87;;;;;;;;;;5093542;28;21005;-61
2023/06/10 10:28:43;;;;;;;9.30;5.70;;;;;;;;;;5095886;28;20436;-62
2023/06/10 10:31:13;;;;;;;6.60;4.80;;;;;;;;;;5096073;28;20469;-61
2023/06/10 10:33:44;;;;;;;8.77;6.00;;;;;;;;;;5096500;28;20792;-62
2023/06/10 10:36:11;;;;;;;5.83;5.30;;;;;;;;;;5096367;28;20445;-61
2023/06/10 10:38:38;;;;;;;7.70;5.10;;;;;;;;;;5096295;28;20442;-61
2023/06/10 10:41:06;;;;;;;10.57;7.13;;;;;;;;;;5095979;28;20452;-61
2023/06/10 10:43:34;;;;;;;6.90;5.63;;;;;;;;;;5096069;28;20569;-61
2023/06/10 10:46:01;;;;;;;7.13;5.00;;;;;;;;;;5095865;28;20409;-61
2023/06/10 10:48:35;;;;;;;9.93;5.60;;;;;;;;;;5095109;28;20450;-61
2023/06/10 10:51:02;;;;;;;7.30;5.00;;;;;;;;;;5095965;28;20906;-61
2023/06/10 10:53:29;;;;;;;7.80;7.10;;;;;;;;;;5095642;28;20775;-61
2023/06/10 10:56:00;;;;;;;6.37;5.77;;;;;;;;;;5096290;28;20466;-61
2023/06/10 10:58:27;;;;;;;7.90;5.50;;;;;;;;;;5095850;28;20963;-61
2023/06/10 11:00:54;;;;;;;8.80;4.87;;;;;;;;;;5096244;28;20457;-61
2023/06/10 11:03:21;;;;;;;6.23;5.23;;;;;;;;;;5096420;28;20511;-61
2023/06/10 11:05:51;;;;;;;5.87;5.13;;;;;;;;;;5095737;28;20533;-61
2023/06/10 11:08:37;;;;;;;6.40;5.80;;;;;;;;;;5094971;28;20435;-61
2023/06/10 11:11:19;;;;;;;6.17;5.60;;;;;;;;;;5095195;28;20411;-61
2023/06/10 11:13:59;;;;;;;6.03;5.50;;;;;;;;;;5095328;28;20878;-61
2023/06/10 11:16:30;;;;;;;8.80;6.20;;;;;;;;;;5095790;28;20433;-61
2023/06/10 11:18:57;;;;;;;9.17;5.80;;;;;;;;;;5095641;28;20429;-61
2023/06/10 11:21:26;;;;;;;10.07;5.87;;;;;;;;;;5095974;28;20416;-61
2023/06/10 11:23:53;;;;;;;9.40;5.17;;;;;;;;;;5095625;28;20455;-61
2023/06/10 11:26:22;;;;;;;6.77;5.27;;;;;;;;;;5094845;28;20541;-61
2023/06/10 11:29:10;;;;;;;5.70;5.20;;;;;;;;;;5094521;28;20787;-61
2023/06/10 11:31:45;;;;;;;7.70;5.03;;;;;;;;;;5095103;28;20456;-61
2023/06/10 11:34:12;;;;;;;6.37;5.77;;;;;;;;;;5095513;28;20755;-61
2023/06/10 11:36:45;;;;;;;5.63;4.90;;;;;;;;;;5094535;28;20420;-61
2023/06/10 11:39:12;;;;;;;8.30;5.97;;;;;;;;;;5095611;28;20436;-61
2023/06/10 11:41:40;;;;;;;6.43;5.70;;;;;;;;;;5095081;28;20480;-61
2023/06/10 11:44:10;;;;;;;6.03;5.30;;;;;;;;;;5095268;28;20451;-62
2023/06/10 11:46:37;;;;;;;5.50;5.00;;;;;;;;;;5094598;28;20485;-62
2023/06/10 11:49:05;;;;;;;6.63;5.90;;;;;;;;;;5093842;28;20507;-61
2023/06/10 11:51:34;;;;;;;5.50;4.97;;;;;;;;;;5094694;28;20941;-63
2023/06/10 11:54:03;;;;;;;6.53;5.30;;;;;;;;;;5094806;28;20563;-62
2023/06/10 11:56:31;;;;;;;6.70;5.10;;;;;;;;;;5094926;28;20441;-62
2023/06/10 11:59:00;;;;;;;6.67;5.93;;;;;;;;;;5095008;28;20420;-61
2023/06/10 12:01:28;;;;;;;5.97;5.23;;;;;;;;;;5094610;28;20459;-62
2023/06/10 12:03:59;;;;;;;6.23;4.90;;;;;;;;;;5095073;28;20798;-61
2023/06/10 12:06:26;;;;;;;7.20;5.73;;;;;;;;;;5094741;28;20565;-61
2023/06/10 12:08:55;;;;;;;7.37;5.37;;;;;;;;;;5094552;28;20442;-61
2023/06/10 12:11:24;;;;;;;8.13;5.77;;;;;;;;;;5094823;28;20442;-61
2023/06/10 12:13:56;;;;;;;8.33;5.57;;;;;;;;;;5094943;28;20483;-61
2023/06/10 12:16:23;;;;;;;7.77;5.57;;;;;;;;;;5094922;28;20732;-61
2023/06/10 12:18:50;;;;;;;6.10;5.57;;;;;;;;;;5094770;28;20428;-62
2023/06/10 12:21:18;;;;;;;8.90;5.73;;;;;;;;;;5094836;28;20421;-61
2023/06/10 12:24:00;;;;;;;6.40;5.80;;;;;;;;;;5094393;28;20432;-61
2023/06/10 12:26:37;;;;;;;6.90;6.20;;;;;;;;;;5094712;28;20525;-61
2023/06/10 12:29:04;;;;;;;6.60;6.00;;;;;;;;;;5094539;28;20477;-61
2023/06/10 12:31:32;;;;;;;5.67;5.17;;;;;;;;;;5093368;28;20483;-61
2023/06/10 12:34:09;;;;;;;6.03;5.40;;;;;;;;;;5092895;28;20904;-62
2023/06/10 12:36:36;;;;;;;7.53;5.37;;;;;;;;;;5093567;28;20880;-61
2023/06/10 12:39:05;;;;;;;6.43;5.30;;;;;;;;;;5093764;28;20515;-61
2023/06/10 12:41:33;;;;;;;9.63;6.63;;;;;;;;;;5093174;28;20418;-61
2023/06/10 12:44:03;;;;;;;7.10;5.90;;;;;;;;;;5094177;28;20478;-61
2023/06/10 12:46:37;;;;;;;6.90;5.80;;;;;;;;;;5094022;28;20609;-61
2023/06/10 12:49:04;;;;;;;11.30;7.50;;;;;;;;;;5093214;28;20661;-61
2023/06/10 12:51:31;;;;;;;11.50;6.17;;;;;;;;;;5093886;28;20532;-61
2023/06/10 12:53:59;;;;;;;6.33;5.70;;;;;;;;;;5093354;28;20421;-61
2023/06/10 12:56:26;;;;;;;6.50;5.80;;;;;;;;;;5093207;28;20417;-61
2023/06/10 12:58:53;;;;;;;10.07;6.60;;;;;;;;;;5093321;28;20890;-61
2023/06/10 13:01:22;;;;;;;6.53;6.00;;;;;;;;;;5092708;28;20450;-61
2023/06/10 13:03:50;;;;;;;7.27;6.57;;;;;;;;;;5094000;28;20447;-61
2023/06/10 13:06:18;;;;;;;6.40;5.87;;;;;;;;;;5093977;28;20439;-61
2023/06/10 13:08:46;;;;;;;6.60;6.00;;;;;;;;;;5093779;28;20475;-62
2023/06/10 13:11:13;;;;;;;6.80;6.10;;;;;;;;;;5093977;28;20483;-62
2023/06/10 13:13:41;;;;;;;5.90;5.30;;;;;;;;;;5093228;28;20439;-62
2023/06/10 13:16:08;;;;;;;8.53;6.50;;;;;;;;;;5093170;28;20442;-61
2023/06/10 13:18:38;;;;;;;7.83;5.87;;;;;;;;;;5093037;28;20452;-62
2023/06/10 13:21:05;;;;;;;7.23;6.40;;;;;;;;;;5093158;28;20447;-62
2023/06/10 13:23:32;;;;;;;6.57;5.90;;;;;;;;;;5093543;28;20541;-62
2023/06/10 13:25:59;;;;;;;8.37;5.80;;;;;;;;;;5093489;28;20438;-62
2023/06/10 13:28:27;;;;;;;6.87;6.27;;;;;;;;;;5093266;28;20567;-62
2023/06/10 13:30:54;;;;;;;6.20;5.70;;;;;;;;;;5092761;28;20478;-62
2023/06/10 13:33:21;;;;;;;7.73;5.90;;;;;;;;;;5092756;28;20456;-62
2023/06/10 13:35:49;;;;;;;6.93;6.23;;;;;;;;;;5092713;28;20863;-61
2023/06/10 13:38:17;;;;;;;8.80;6.00;;;;;;;;;;5092351;28;20450;-62
2023/06/10 13:40:44;;;;;;;7.07;6.47;;;;;;;;;;5092646;28;20444;-63
2023/06/10 13:43:12;;;;;;;7.03;5.83;;;;;;;;;;5092969;28;20444;-62
2023/06/10 13:45:39;;;;;;;7.83;6.33;;;;;;;;;;5093162;28;20435;-62
2023/06/10 13:48:07;;;;;;;6.67;6.17;;;;;;;;;;5093257;28;20898;-61
2023/06/10 13:50:34;;;;;;;6.93;6.27;;;;;;;;;;5093421;28;20526;-62
2023/06/10 13:53:02;;;;;;;6.80;6.10;;;;;;;;;;5093279;28;20450;-62
2023/06/10 13:55:29;;;;;;;6.63;6.00;;;;;;;;;;5092946;28;20443;-62
2023/06/10 13:57:57;;;;;;;7.27;6.57;;;;;;;;;;5092992;28;20881;-62
2023/06/10 14:00:25;;;;;;;15.77;8.67;;;;;;;;;;5094692;28;20930;-62
2023/06/10 14:02:52;;;;;;;8.63;7.50;;;;;;;;;;5097428;28;20441;-63
2023/06/10 14:05:19;;;;;;;6.80;6.20;;;;;;;;;;5097197;28;20451;-62
2023/06/10 14:07:46;;;;;;;6.83;6.33;;;;;;;;;;5094757;28;20473;-62
2023/06/10 14:10:15;;;;;;;6.20;5.70;;;;;;;;;;5096640;28;20471;-63
2023/06/10 14:12:42;;;;;;;10.87;6.30;;;;;;;;;;5096297;28;20442;-62
2023/06/10 14:15:09;;;;;;;9.77;6.83;;;;;;;;;;5097124;28;20435;-62
2023/06/10 14:17:36;;;;;;;8.00;6.67;;;;;;;;;;5097041;28;20438;-62
2023/06/10 14:20:04;;;;;;;8.53;5.90;;;;;;;;;;5096966;28;20439;-62
2023/06/10 14:22:31;;;;;;;7.10;6.17;;;;;;;;;;5096553;28;20438;-62
2023/06/10 14:24:58;;;;;;;7.13;6.43;;;;;;;;;;5097341;28;20793;-62
2023/06/10 14:27:27;;;;;;;7.47;6.60;;;;;;;;;;5095602;28;20484;-62
2023/06/10 14:29:54;;;;;;;8.40;6.80;;;;;;;;;;5095910;28;20457;-62
2023/06/10 14:32:21;;;;;;;10.20;6.40;;;;;;;;;;5095868;28;20521;-62
2023/06/10 14:34:48;;;;;;;10.90;6.27;;;;;;;;;;5096673;28;20952;-62
2023/06/10 14:37:15;;;;;;;6.67;6.17;;;;;;;;;;5096163;28;20451;-62
2023/06/10 14:39:43;;;;;;;7.10;5.90;;;;;;;;;;5096837;28;20461;-62
2023/06/10 14:42:10;;;;;;;6.97;6.37;;;;;;;;;;5096180;28;20482;-62
2023/06/10 14:44:39;;;;;;;7.50;6.73;;;;;;;;;;5096089;28;20432;-62
2023/06/10 14:47:06;;;;;;;6.67;6.10;;;;;;;;;;5095661;28;20468;-62